Time;durP1;ratioP1;P1;durP2;ratioP2;P2;SDS_P1;SDS_P2;PMS_P1;PMS_P2;Temp;Humidity;BMP_temperature;BMP_pressure;BME280_temperature;BME280_humidity;BME280_pressure;Samples;Min_cycle;Max_cycle;Signal;HPM_P1;HPM_P2
2023/09/26 00:02:19;;;;;;;;;12.50;10.25;;;;;;;;5135313;27;11427;-83
2023/09/26 00:04:45;;;;;;;;;9.50;9.25;;;;;;;;5123091;27;8826;-83
2023/09/26 00:07:12;;;;;;;;;9.75;8.75;;;;;;;;5121495;27;10088;-83
2023/09/26 00:09:37;;;;;;;;;6.00;4.25;;;;;;;;5136170;27;8806;-83
2023/09/26 00:12:03;;;;;;;;;8.00;8.00;;;;;;;;5136450;27;10284;-84
2023/09/26 00:14:28;;;;;;;;;17.25;10.25;;;;;;;;5141898;27;9949;-83
2023/09/26 00:16:53;;;;;;;;;8.50;8.50;;;;;;;;5105505;27;8810;-83
2023/09/26 00:19:19;;;;;;;;;8.50;8.50;;;;;;;;5104371;28;8848;-83
2023/09/26 00:21:44;;;;;;;;;11.50;10.50;;;;;;;;5121124;28;8856;-84
2023/09/26 00:24:09;;;;;;;;;7.25;6.25;;;;;;;;5140876;27;9981;-83
2023/09/26 00:26:35;;;;;;;;;8.75;8.75;;;;;;;;5146059;27;8812;-83
2023/09/26 00:29:00;;;;;;;;;12.50;9.25;;;;;;;;5132704;27;8866;-83
2023/09/26 00:31:25;;;;;;;;;10.50;10.00;;;;;;;;5129524;27;8807;-84
2023/09/26 00:33:51;;;;;;;;;9.25;9.00;;;;;;;;5138005;27;9865;-83
2023/09/26 00:36:17;;;;;;;;;12.00;9.00;;;;;;;;5146400;27;8808;-83
2023/09/26 00:38:42;;;;;;;;;13.25;10.00;;;;;;;;5146937;27;8807;-84
2023/09/26 00:41:07;;;;;;;;;9.00;9.00;;;;;;;;5146085;27;10246;-83
2023/09/26 00:43:35;;;;;;;;;11.00;8.75;;;;;;;;5146959;27;8876;-83
2023/09/26 00:46:00;;;;;;;;;10.50;9.00;;;;;;;;5144944;27;8812;-84
2023/09/26 00:48:26;;;;;;;;;10.00;9.25;;;;;;;;5146527;27;10441;-84
2023/09/26 00:50:54;;;;;;;;;10.75;8.75;;;;;;;;5131506;27;8847;-83
2023/09/26 00:53:24;;;;;;;;;10.75;9.50;;;;;;;;5124384;28;10058;-83
2023/09/26 00:55:51;;;;;;;;;9.25;8.00;;;;;;;;5125242;27;10252;-83
2023/09/26 00:58:20;;;;;;;;;11.00;8.75;;;;;;;;5125942;27;10106;-84
2023/09/26 01:00:45;;;;;;;;;9.25;9.25;;;;;;;;5142524;27;10232;-83
2023/09/26 01:03:11;;;;;;;;;11.75;8.00;;;;;;;;5124552;27;10535;-83
2023/09/26 01:05:36;;;;;;;;;11.50;10.50;;;;;;;;5124864;27;9362;-83
2023/09/26 01:08:02;;;;;;;;;7.50;7.50;;;;;;;;5124278;27;8790;-84
2023/09/26 01:10:27;;;;;;;;;13.25;10.00;;;;;;;;5145244;27;8792;-84
2023/09/26 01:12:53;;;;;;;;;7.50;7.50;;;;;;;;5144731;27;10004;-82
2023/09/26 01:15:45;;;;;;;;;13.50;9.50;;;;;;;;5125724;27;8792;-83
2023/09/26 01:18:12;;;;;;;;;9.00;8.00;;;;;;;;5121836;27;8756;-83
2023/09/26 01:20:38;;;;;;;;;10.50;10.50;;;;;;;;5145208;27;10132;-83
2023/09/26 01:23:07;;;;;;;;;9.00;5.25;;;;;;;;5141606;27;11300;-83
2023/09/26 01:25:33;;;;;;;;;9.00;7.25;;;;;;;;5125526;27;10212;-84
2023/09/26 01:28:04;;;;;;;;;9.00;9.00;;;;;;;;5135890;27;10134;-83
2023/09/26 01:30:30;;;;;;;;;10.25;8.75;;;;;;;;5132826;27;10188;-83
2023/09/26 01:32:56;;;;;;;;;10.00;8.25;;;;;;;;5131070;27;10311;-84
2023/09/26 01:35:21;;;;;;;;;8.50;8.50;;;;;;;;5142222;27;10367;-83
2023/09/26 01:37:50;;;;;;;;;9.75;8.25;;;;;;;;5145202;27;8910;-84
2023/09/26 01:40:15;;;;;;;;;7.50;6.75;;;;;;;;5135913;27;8741;-83
2023/09/26 01:42:40;;;;;;;;;9.50;7.25;;;;;;;;5143857;27;10331;-84
2023/09/26 01:45:06;;;;;;;;;8.00;6.75;;;;;;;;5145736;27;8773;-83
2023/09/26 01:47:41;;;;;;;;;13.50;9.75;;;;;;;;5107733;27;8794;-84
2023/09/26 01:50:07;;;;;;;;;11.00;10.00;;;;;;;;5104379;28;8738;-83
2023/09/26 01:52:35;;;;;;;;;7.25;6.75;;;;;;;;5113380;27;10413;-83
2023/09/26 01:55:01;;;;;;;;;7.25;6.50;;;;;;;;5123849;27;10177;-84
2023/09/26 01:57:26;;;;;;;;;7.50;7.50;;;;;;;;5130450;27;10102;-83
2023/09/26 01:59:51;;;;;;;;;9.75;9.25;;;;;;;;5126480;27;9952;-84
2023/09/26 02:02:17;;;;;;;;;8.50;6.25;;;;;;;;5123906;28;8789;-82
2023/09/26 02:04:42;;;;;;;;;12.50;8.75;;;;;;;;5138184;27;9583;-83
2023/09/26 02:07:07;;;;;;;;;3.75;1.75;;;;;;;;5130225;27;8809;-84
2023/09/26 02:09:32;;;;;;;;;8.00;8.00;;;;;;;;5136076;27;8788;-84
2023/09/26 02:11:58;;;;;;;;;8.75;8.75;;;;;;;;5144947;27;8776;-83
2023/09/26 02:14:23;;;;;;;;;11.75;8.75;;;;;;;;5144987;27;8764;-83
2023/09/26 02:16:48;;;;;;;;;5.00;5.00;;;;;;;;5143146;27;8804;-84
2023/09/26 02:19:13;;;;;;;;;8.50;7.50;;;;;;;;5144894;27;8777;-84
2023/09/26 02:21:39;;;;;;;;;10.75;8.75;;;;;;;;5144945;27;8812;-84
2023/09/26 02:24:04;;;;;;;;;8.75;7.25;;;;;;;;5132827;27;8809;-84
2023/09/26 02:26:29;;;;;;;;;9.00;8.25;;;;;;;;5123481;27;8833;-84
2023/09/26 02:28:55;;;;;;;;;8.50;8.00;;;;;;;;5133505;27;8816;-83
2023/09/26 02:31:20;;;;;;;;;6.50;6.00;;;;;;;;5128101;27;10052;-83
2023/09/26 02:33:45;;;;;;;;;10.25;6.75;;;;;;;;5142706;27;8877;-83
2023/09/26 02:36:10;;;;;;;;;10.25;7.00;;;;;;;;5126253;27;8803;-84
2023/09/26 02:38:36;;;;;;;;;9.00;7.50;;;;;;;;5145287;27;8788;-84
2023/09/26 02:41:01;;;;;;;;;11.50;7.00;;;;;;;;5144321;27;8777;-84
2023/09/26 02:43:26;;;;;;;;;7.00;6.75;;;;;;;;5136058;27;8820;-83
2023/09/26 02:45:51;;;;;;;;;13.50;9.25;;;;;;;;5140507;27;8788;-83
2023/09/26 02:48:17;;;;;;;;;9.00;7.00;;;;;;;;5123702;27;9534;-84
2023/09/26 02:50:42;;;;;;;;;9.25;8.00;;;;;;;;5123984;27;8795;-82
2023/09/26 02:53:07;;;;;;;;;9.00;6.25;;;;;;;;5133476;27;8796;-83
2023/09/26 02:55:33;;;;;;;;;13.25;5.75;;;;;;;;5144058;27;8769;-83
2023/09/26 02:57:58;;;;;;;;;8.00;8.00;;;;;;;;5135138;27;8840;-83
2023/09/26 03:00:23;;;;;;;;;11.25;9.00;;;;;;;;5123777;28;8899;-83
2023/09/26 03:02:49;;;;;;;;;7.00;6.00;;;;;;;;5126348;27;8872;-83
2023/09/26 03:05:14;;;;;;;;;9.00;7.00;;;;;;;;5128696;27;8808;-83
2023/09/26 03:07:40;;;;;;;;;6.75;4.25;;;;;;;;5122008;28;8911;-83
2023/09/26 03:10:06;;;;;;;;;8.50;8.50;;;;;;;;5121183;28;8887;-84
2023/09/26 03:12:31;;;;;;;;;5.75;5.25;;;;;;;;5109187;27;8731;-84
2023/09/26 03:14:56;;;;;;;;;6.25;6.25;;;;;;;;5142683;27;10142;-83
2023/09/26 03:17:22;;;;;;;;;7.00;6.25;;;;;;;;5130054;27;8800;-83
2023/09/26 03:19:47;;;;;;;;;11.00;6.50;;;;;;;;5122876;27;10136;-84
2023/09/26 03:22:13;;;;;;;;;7.25;6.25;;;;;;;;5123328;28;8815;-84
2023/09/26 03:24:38;;;;;;;;;9.25;7.00;;;;;;;;5131767;27;9134;-84
2023/09/26 03:27:03;;;;;;;;;7.00;7.00;;;;;;;;5123427;27;8893;-84
2023/09/26 03:29:28;;;;;;;;;11.25;9.25;;;;;;;;5139567;27;8801;-83
2023/09/26 03:31:54;;;;;;;;;11.00;9.25;;;;;;;;5126759;27;8815;-84
2023/09/26 03:34:19;;;;;;;;;12.00;12.00;;;;;;;;5135402;27;8848;-83
2023/09/26 03:36:44;;;;;;;;;9.00;7.00;;;;;;;;5138891;27;8796;-84
2023/09/26 03:39:09;;;;;;;;;5.00;5.00;;;;;;;;5142471;27;9844;-84
2023/09/26 03:41:35;;;;;;;;;12.00;9.75;;;;;;;;5142471;27;9621;-84
2023/09/26 03:44:00;;;;;;;;;12.00;7.75;;;;;;;;5126355;27;8810;-84
2023/09/26 03:46:25;;;;;;;;;8.00;7.00;;;;;;;;5123777;27;8808;-83
2023/09/26 03:48:51;;;;;;;;;6.75;5.00;;;;;;;;5141409;27;8947;-84
2023/09/26 03:51:16;;;;;;;;;8.50;7.75;;;;;;;;5141960;27;8845;-84
2023/09/26 03:53:42;;;;;;;;;7.50;6.75;;;;;;;;5141550;27;8914;-84
2023/09/26 03:56:07;;;;;;;;;12.25;7.00;;;;;;;;5142166;27;8796;-83
2023/09/26 03:58:33;;;;;;;;;9.00;7.00;;;;;;;;5139204;27;8799;-84
2023/09/26 04:01:11;;;;;;;;;11.25;7.75;;;;;;;;5122223;27;8779;-83
2023/09/26 04:03:37;;;;;;;;;10.00;6.50;;;;;;;;5121704;27;9030;-84
2023/09/26 04:06:02;;;;;;;;;8.75;8.50;;;;;;;;5123934;27;10491;-83
2023/09/26 04:08:28;;;;;;;;;8.75;8.75;;;;;;;;5123041;27;8891;-84
2023/09/26 04:10:53;;;;;;;;;11.00;8.50;;;;;;;;5122690;27;8870;-84
2023/09/26 04:13:18;;;;;;;;;9.00;9.00;;;;;;;;5123158;27;8897;-84
2023/09/26 04:15:44;;;;;;;;;7.25;6.75;;;;;;;;5108491;27;8824;-84
2023/09/26 04:18:09;;;;;;;;;8.75;6.75;;;;;;;;5108929;27;9907;-84
2023/09/26 04:20:35;;;;;;;;;6.75;6.00;;;;;;;;5127102;27;8815;-84
2023/09/26 04:23:00;;;;;;;;;10.00;8.75;;;;;;;;5139783;27;8812;-84
2023/09/26 04:25:28;;;;;;;;;6.75;6.75;;;;;;;;5120429;28;8826;-83
2023/09/26 04:27:53;;;;;;;;;4.75;4.75;;;;;;;;5131808;27;8776;-84
2023/09/26 04:30:18;;;;;;;;;7.00;7.00;;;;;;;;5124058;27;10206;-83
2023/09/26 04:32:44;;;;;;;;;13.25;8.00;;;;;;;;5122787;27;8781;-84
2023/09/26 04:35:09;;;;;;;;;9.00;8.00;;;;;;;;5122333;27;8869;-84
2023/09/26 04:37:35;;;;;;;;;10.25;7.00;;;;;;;;5141471;27;8857;-84
2023/09/26 04:40:00;;;;;;;;;9.00;6.50;;;;;;;;5125026;27;8826;-85
2023/09/26 04:42:25;;;;;;;;;6.00;6.00;;;;;;;;5124688;27;8792;-84
2023/09/26 04:44:51;;;;;;;;;8.00;7.00;;;;;;;;5138113;27;8822;-84
2023/09/26 04:47:17;;;;;;;;;8.50;6.75;;;;;;;;5131080;27;10059;-83
2023/09/26 04:49:42;;;;;;;;;10.00;8.00;;;;;;;;5121239;28;10120;-84
2023/09/26 04:52:07;;;;;;;;;11.75;7.75;;;;;;;;5122232;28;8905;-84
2023/09/26 04:54:32;;;;;;;;;6.75;6.75;;;;;;;;5129648;27;8812;-84
2023/09/26 04:56:58;;;;;;;;;8.75;6.00;;;;;;;;5122576;28;9548;-84
2023/09/26 04:59:23;;;;;;;;;8.50;6.75;;;;;;;;5126638;27;8876;-84
2023/09/26 05:01:49;;;;;;;;;6.25;6.00;;;;;;;;5142764;27;8832;-84
2023/09/26 05:04:14;;;;;;;;;8.50;6.75;;;;;;;;5141485;27;9540;-86
2023/09/26 05:06:39;;;;;;;;;7.00;5.75;;;;;;;;5143644;27;9612;-80
2023/09/26 05:09:08;;;;;;;;;11.00;8.00;;;;;;;;5144937;27;8883;-78
2023/09/26 05:11:33;;;;;;;;;8.50;5.25;;;;;;;;5143346;27;9801;-79
2023/09/26 05:13:59;;;;;;;;;7.25;7.25;;;;;;;;5144062;27;10282;-80
2023/09/26 05:16:25;;;;;;;;;6.00;6.00;;;;;;;;5129461;27;8756;-78
2023/09/26 05:18:50;;;;;;;;;7.00;7.00;;;;;;;;5123922;27;10260;-78
2023/09/26 05:21:15;;;;;;;;;7.75;6.75;;;;;;;;5123562;27;8861;-75
2023/09/26 05:23:41;;;;;;;;;6.75;6.75;;;;;;;;5126805;27;8793;-85
2023/09/26 05:26:11;;;;;;;;;7.75;6.25;;;;;;;;5123762;27;8852;-81
2023/09/26 05:28:38;;;;;;;;;7.00;7.00;;;;;;;;5122802;27;8764;-81
2023/09/26 05:31:05;;;;;;;;;5.75;5.25;;;;;;;;5126476;27;10166;-74
2023/09/26 05:33:30;;;;;;;;;12.50;7.50;;;;;;;;5131406;27;10174;-74
2023/09/26 05:35:56;;;;;;;;;9.25;8.25;;;;;;;;5125683;27;10453;-79
2023/09/26 05:38:21;;;;;;;;;13.25;10.00;;;;;;;;5129853;27;8808;-79
2023/09/26 05:40:47;;;;;;;;;6.25;6.25;;;;;;;;5121233;27;8779;-80
2023/09/26 05:43:12;;;;;;;;;8.00;8.00;;;;;;;;5123634;27;8991;-80
2023/09/26 05:45:38;;;;;;;;;9.00;7.25;;;;;;;;5123417;27;10085;-81
2023/09/26 05:48:04;;;;;;;;;11.00;9.25;;;;;;;;5125964;27;8827;-77
2023/09/26 05:50:29;;;;;;;;;12.75;8.00;;;;;;;;5127184;27;8744;-78
2023/09/26 05:52:55;;;;;;;;;12.00;8.25;;;;;;;;5125161;27;10284;-78
2023/09/26 05:55:20;;;;;;;;;6.00;6.00;;;;;;;;5134415;27;9505;-77
2023/09/26 05:57:45;;;;;;;;;10.50;9.25;;;;;;;;5123427;27;8804;-77
2023/09/26 06:00:15;;;;;;;;;5.75;5.75;;;;;;;;5137647;27;8910;-77
2023/09/26 06:02:41;;;;;;;;;5.50;5.50;;;;;;;;5131031;27;8804;-78
2023/09/26 06:05:07;;;;;;;;;8.25;8.25;;;;;;;;5122647;27;10535;-77
2023/09/26 06:07:32;;;;;;;;;10.75;7.25;;;;;;;;5144329;27;8947;-76
2023/09/26 06:09:58;;;;;;;;;13.00;8.25;;;;;;;;5139132;27;8776;-79
2023/09/26 06:12:24;;;;;;;;;7.75;7.75;;;;;;;;5121658;27;8729;-77
2023/09/26 06:14:49;;;;;;;;;9.00;8.00;;;;;;;;5130507;27;11432;-78
2023/09/26 06:17:14;;;;;;;;;14.75;10.50;;;;;;;;5117978;27;8844;-77
2023/09/26 06:19:44;;;;;;;;;11.00;8.50;;;;;;;;5123480;27;8874;-77
2023/09/26 06:22:10;;;;;;;;;8.00;8.00;;;;;;;;5133121;27;8797;-77
2023/09/26 06:24:35;;;;;;;;;10.00;8.25;;;;;;;;5120674;27;11186;-77
2023/09/26 06:27:00;;;;;;;;;9.00;7.00;;;;;;;;5126422;27;8826;-77
2023/09/26 06:29:26;;;;;;;;;9.25;8.25;;;;;;;;5139770;27;8819;-77
2023/09/26 06:31:51;;;;;;;;;11.00;8.50;;;;;;;;5124034;27;8887;-77
2023/09/26 06:34:20;;;;;;;;;9.75;9.75;;;;;;;;5131809;27;8806;-77
2023/09/26 06:36:49;;;;;;;;;14.50;11.75;;;;;;;;5132364;27;8807;-78
2023/09/26 06:39:15;;;;;;;;;13.75;11.50;;;;;;;;5121760;28;10598;-79
2023/09/26 06:41:40;;;;;;;;;15.00;9.75;;;;;;;;5123548;27;10362;-82
2023/09/26 06:44:05;;;;;;;;;8.00;6.50;;;;;;;;5141654;27;10219;-75
2023/09/26 06:46:30;;;;;;;;;13.50;11.25;;;;;;;;5142525;27;8828;-76
2023/09/26 06:48:56;;;;;;;;;14.50;10.00;;;;;;;;5127929;27;9316;-76
2023/09/26 06:51:21;;;;;;;;;8.50;8.25;;;;;;;;5129199;27;8840;-76
2023/09/26 06:53:47;;;;;;;;;11.50;9.75;;;;;;;;5132428;27;8885;-76
2023/09/26 06:56:12;;;;;;;;;16.50;13.75;;;;;;;;5122171;27;8766;-76
2023/09/26 06:58:39;;;;;;;;;17.50;13.00;;;;;;;;5122226;28;10425;-76
2023/09/26 07:01:10;;;;;;;;;14.00;14.00;;;;;;;;5122728;27;8828;-76
2023/09/26 07:03:36;;;;;;;;;14.00;11.25;;;;;;;;5121188;27;10440;-75
2023/09/26 07:06:07;;;;;;;;;11.00;10.00;;;;;;;;5125975;27;10069;-76
2023/09/26 07:08:32;;;;;;;;;17.25;14.50;;;;;;;;5142001;27;8838;-75
2023/09/26 07:11:01;;;;;;;;;17.50;12.50;;;;;;;;5142725;27;10234;-76
2023/09/26 07:13:27;;;;;;;;;13.50;7.75;;;;;;;;5116644;27;10144;-76
2023/09/26 07:16:05;;;;;;;;;15.50;11.50;;;;;;;;5137691;27;9882;-75
2023/09/26 07:18:30;;;;;;;;;23.50;22.00;;;;;;;;5114916;27;8789;-76
2023/09/26 07:20:59;;;;;;;;;29.50;23.25;;;;;;;;5121315;28;10630;-76
2023/09/26 07:23:24;;;;;;;;;18.75;18.75;;;;;;;;5137723;27;8788;-76
2023/09/26 07:25:50;;;;;;;;;19.50;18.25;;;;;;;;5135657;27;10289;-76
2023/09/26 07:28:15;;;;;;;;;9.50;7.75;;;;;;;;5123159;27;8791;-76
2023/09/26 07:30:40;;;;;;;;;10.75;6.00;;;;;;;;5130436;27;9624;-83
2023/09/26 07:33:05;;;;;;;;;8.00;5.25;;;;;;;;5127704;27;10179;-76
2023/09/26 07:35:31;;;;;;;;;7.50;7.50;;;;;;;;5125150;27;8830;-76
2023/09/26 07:37:57;;;;;;;;;8.75;5.25;;;;;;;;5133033;27;8819;-76
2023/09/26 07:40:22;;;;;;;;;4.25;3.25;;;;;;;;5133942;27;8780;-76
2023/09/26 07:42:47;;;;;;;;;9.00;7.00;;;;;;;;5121050;27;10221;-76
2023/09/26 07:45:16;;;;;;;;;6.00;6.00;;;;;;;;5132762;27;8900;-76
2023/09/26 07:47:41;;;;;;;;;5.75;5.75;;;;;;;;5132872;27;8825;-76
2023/09/26 07:50:07;;;;;;;;;7.00;4.75;;;;;;;;5123552;27;10056;-76
2023/09/26 07:52:32;;;;;;;;;7.00;7.00;;;;;;;;5124007;27;9968;-76
2023/09/26 07:54:57;;;;;;;;;3.75;3.75;;;;;;;;5122298;27;8804;-76
2023/09/26 07:57:23;;;;;;;;;6.50;5.25;;;;;;;;5126092;27;8822;-76
2023/09/26 07:59:49;;;;;;;;;5.25;4.00;;;;;;;;5122435;27;8757;-76
2023/09/26 08:02:14;;;;;;;;;8.00;5.50;;;;;;;;5134197;27;8901;-74
2023/09/26 08:04:39;;;;;;;;;3.50;3.50;;;;;;;;5132223;27;8796;-77
2023/09/26 08:07:05;;;;;;;;;4.75;3.75;;;;;;;;5121253;27;8800;-76
2023/09/26 08:09:31;;;;;;;;;8.75;5.00;;;;;;;;5121914;27;8836;-75
2023/09/26 08:11:56;;;;;;;;;6.00;5.00;;;;;;;;5129097;27;8789;-79
2023/09/26 08:14:21;;;;;;;;;3.25;3.25;;;;;;;;5133205;27;9895;-79
2023/09/26 08:16:47;;;;;;;;;6.00;4.50;;;;;;;;5125165;27;8821;-79
2023/09/26 08:19:12;;;;;;;;;6.75;4.50;;;;;;;;5139700;27;8812;-79
2023/09/26 08:21:39;;;;;;;;;6.00;4.25;;;;;;;;5130190;27;8803;-79
2023/09/26 08:24:05;;;;;;;;;5.25;4.25;;;;;;;;5134495;27;8765;-79
2023/09/26 08:26:31;;;;;;;;;3.25;3.25;;;;;;;;5130981;27;9909;-79
2023/09/26 08:28:56;;;;;;;;;3.50;3.00;;;;;;;;5142502;27;8788;-79
2023/09/26 08:31:21;;;;;;;;;3.25;3.25;;;;;;;;5140049;27;8896;-78
2023/09/26 08:33:49;;;;;;;;;4.00;4.00;;;;;;;;5131643;27;8785;-79
2023/09/26 08:36:15;;;;;;;;;4.50;4.50;;;;;;;;5135655;27;8869;-79
2023/09/26 08:38:40;;;;;;;;;5.25;4.00;;;;;;;;5122691;27;9674;-79
2023/09/26 08:41:08;;;;;;;;;12.25;4.75;;;;;;;;5123462;27;10285;-79
2023/09/26 08:43:33;;;;;;;;;5.25;5.00;;;;;;;;5124118;27;8797;-79
2023/09/26 08:45:58;;;;;;;;;4.25;4.25;;;;;;;;5125493;27;9780;-79
2023/09/26 08:48:24;;;;;;;;;6.75;4.00;;;;;;;;5140248;27;8808;-79
2023/09/26 08:50:49;;;;;;;;;7.00;3.00;;;;;;;;5123460;27;11513;-79
2023/09/26 08:53:14;;;;;;;;;4.00;4.00;;;;;;;;5128576;27;8816;-79
2023/09/26 08:55:40;;;;;;;;;9.50;4.00;;;;;;;;5144543;27;8954;-79
2023/09/26 08:58:06;;;;;;;;;10.00;7.50;;;;;;;;5145748;27;8808;-79
2023/09/26 09:00:31;;;;;;;;;8.50;6.25;;;;;;;;5125888;27;10015;-79
2023/09/26 09:02:56;;;;;;;;;9.75;6.00;;;;;;;;5124615;27;8884;-79
2023/09/26 09:05:23;;;;;;;;;7.00;6.00;;;;;;;;5124740;27;8846;-79
2023/09/26 09:07:48;;;;;;;;;5.00;5.00;;;;;;;;5123553;27;8807;-79
2023/09/26 09:10:16;;;;;;;;;8.50;4.75;;;;;;;;5141111;27;10035;-79
2023/09/26 09:12:43;;;;;;;;;7.25;5.00;;;;;;;;5131213;27;8899;-79
2023/09/26 09:15:14;;;;;;;;;6.67;4.67;;;;;;;;5125023;27;9748;-79
2023/09/26 09:17:40;;;;;;;;;4.00;4.00;;;;;;;;5123646;27;9443;-79
2023/09/26 09:20:06;;;;;;;;;6.25;4.00;;;;;;;;5136194;27;10125;-79
2023/09/26 09:22:32;;;;;;;;;5.25;4.25;;;;;;;;5138497;27;9709;-79
2023/09/26 09:24:58;;;;;;;;;8.25;5.75;;;;;;;;5123740;27;11456;-79
2023/09/26 09:27:30;;;;;;;;;10.00;5.00;;;;;;;;5132931;27;8920;-79
2023/09/26 09:30:04;;;;;;;;;5.00;5.00;;;;;;;;5141606;27;10311;-78
2023/09/26 09:32:30;;;;;;;;;3.50;3.50;;;;;;;;5126053;27;9697;-79
2023/09/26 09:34:55;;;;;;;;;7.25;5.50;;;;;;;;5122709;27;9990;-79
2023/09/26 09:37:20;;;;;;;;;7.25;5.50;;;;;;;;5124674;27;8819;-79
2023/09/26 09:39:47;;;;;;;;;7.00;6.00;;;;;;;;5124136;27;8871;-79
2023/09/26 09:42:12;;;;;;;;;9.25;6.00;;;;;;;;5127954;27;8732;-79
2023/09/26 09:44:37;;;;;;;;;6.33;5.33;;;;;;;;5125097;27;9875;-79
2023/09/26 09:47:04;;;;;;;;;5.00;5.00;;;;;;;;5123948;27;8819;-79
2023/09/26 09:49:31;;;;;;;;;6.75;5.25;;;;;;;;5123805;27;8811;-78
2023/09/26 09:51:59;;;;;;;;;5.75;4.00;;;;;;;;5138826;27;9800;-78
2023/09/26 09:54:27;;;;;;;;;6.75;6.25;;;;;;;;5129044;27;9611;-76
2023/09/26 09:56:54;;;;;;;;;4.00;4.00;;;;;;;;5132378;27;9598;-76
2023/09/26 09:59:22;;;;;;;;;7.25;5.00;;;;;;;;5132218;27;9935;-75
2023/09/26 10:01:50;;;;;;;;;5.00;4.00;;;;;;;;5130945;27;9658;-76
2023/09/26 10:04:15;;;;;;;;;11.75;8.75;;;;;;;;5132459;27;9480;-75
2023/09/26 10:06:41;;;;;;;;;5.75;5.00;;;;;;;;5139659;27;9970;-76
2023/09/26 10:09:08;;;;;;;;;6.25;6.00;;;;;;;;5129206;27;8790;-76
2023/09/26 10:11:35;;;;;;;;;5.00;5.00;;;;;;;;5132955;27;10982;-83
2023/09/26 10:14:02;;;;;;;;;6.00;5.00;;;;;;;;5126487;27;9653;-81
2023/09/26 10:16:29;;;;;;;;;6.25;5.00;;;;;;;;5123773;27;9928;-81
2023/09/26 10:18:55;;;;;;;;;8.25;5.25;;;;;;;;5122256;27;10104;-81
2023/09/26 10:21:25;;;;;;;;;6.00;5.00;;;;;;;;5123585;27;9732;-81
2023/09/26 10:24:05;;;;;;;;;6.00;6.00;;;;;;;;5146269;27;8801;-81
2023/09/26 10:26:36;;;;;;;;;5.75;4.75;;;;;;;;5121069;27;9662;-81
2023/09/26 10:29:05;;;;;;;;;3.33;3.33;;;;;;;;5124229;27;9792;-81
2023/09/26 10:31:34;;;;;;;;;5.00;5.00;;;;;;;;5122261;27;9468;-81
2023/09/26 10:34:01;;;;;;;;;6.33;5.67;;;;;;;;5122757;27;9612;-81
2023/09/26 10:36:28;;;;;;;;;6.00;5.00;;;;;;;;5132597;27;9305;-79
2023/09/26 10:38:57;;;;;;;;;4.75;4.75;;;;;;;;5129288;27;9805;-79
2023/09/26 10:41:22;;;;;;;;;7.00;5.50;;;;;;;;5127032;27;9638;-83
2023/09/26 10:43:48;;;;;;;;;11.50;7.25;;;;;;;;5130034;27;9606;-85
2023/09/26 10:46:13;;;;;;;;;5.25;5.00;;;;;;;;5138633;27;8823;-82
2023/09/26 10:48:40;;;;;;;;;7.50;5.00;;;;;;;;5122677;27;8780;-81
2023/09/26 10:51:05;;;;;;;;;5.25;5.25;;;;;;;;5122130;27;8809;-78
2023/09/26 10:53:30;;;;;;;;;7.75;6.50;;;;;;;;5133855;27;9462;-78
2023/09/26 10:55:56;;;;;;;;;5.00;5.00;;;;;;;;5130185;27;8784;-82
2023/09/26 10:58:22;;;;;;;;;5.00;4.00;;;;;;;;5137257;27;8924;-82
2023/09/26 11:00:51;;;;;;;;;4.67;4.67;;;;;;;;5121865;27;8752;-85
2023/09/26 11:03:16;;;;;;;;;7.67;5.00;;;;;;;;5138749;27;9381;-83
2023/09/26 11:05:41;;;;;;;;;8.33;5.33;;;;;;;;5141982;27;9521;-84
2023/09/26 11:08:07;;;;;;;;;6.67;5.67;;;;;;;;5133936;27;8865;-80
2023/09/26 11:10:32;;;;;;;;;6.67;6.00;;;;;;;;5122685;27;8830;-81
2023/09/26 11:12:57;;;;;;;;;7.00;6.00;;;;;;;;5141332;27;8843;-84
2023/09/26 11:15:25;;;;;;;;;7.00;5.00;;;;;;;;5122703;27;8828;-80
2023/09/26 11:17:50;;;;;;;;;7.00;5.00;;;;;;;;5126163;27;8809;-83
2023/09/26 11:20:15;;;;;;;;;8.00;7.00;;;;;;;;5127901;27;9276;-82
2023/09/26 11:22:48;;;;;;;;;5.67;4.33;;;;;;;;5130691;27;8796;-73
2023/09/26 11:25:13;;;;;;;;;6.00;6.00;;;;;;;;5124358;27;8857;-82
2023/09/26 11:27:39;;;;;;;;;9.67;5.00;;;;;;;;5122625;27;9601;-82
2023/09/26 11:30:10;;;;;;;;;6.67;6.67;;;;;;;;5122478;27;8732;-82
2023/09/26 11:32:35;;;;;;;;;6.00;6.00;;;;;;;;5120408;27;10207;-83
2023/09/26 11:35:00;;;;;;;;;9.67;5.67;;;;;;;;5120981;27;9203;-82
2023/09/26 11:37:29;;;;;;;;;9.33;8.00;;;;;;;;5138292;27;8777;-83
2023/09/26 11:39:55;;;;;;;;;6.67;6.67;;;;;;;;5123276;27;8721;-82
2023/09/26 11:42:20;;;;;;;;;9.00;5.33;;;;;;;;5129314;27;9200;-82
2023/09/26 11:44:55;;;;;;;;;6.00;6.00;;;;;;;;5122867;27;8791;-82
2023/09/26 11:47:21;;;;;;;;;10.00;7.00;;;;;;;;5146069;27;10182;-82
2023/09/26 11:49:47;;;;;;;;;8.00;6.67;;;;;;;;5121982;27;9126;-81
2023/09/26 11:52:12;;;;;;;;;6.00;5.00;;;;;;;;5122398;27;11446;-83
2023/09/26 11:54:38;;;;;;;;;6.33;5.00;;;;;;;;5122029;27;8803;-82
2023/09/26 11:57:04;;;;;;;;;5.00;5.00;;;;;;;;5124182;27;8791;-84
2023/09/26 11:59:29;;;;;;;;;6.33;4.67;;;;;;;;5120518;27;9052;-82
2023/09/26 12:01:56;;;;;;;;;4.00;4.00;;;;;;;;5122231;27;8791;-82
2023/09/26 12:04:21;;;;;;;;;2.00;2.00;;;;;;;;5126886;27;8773;-82
2023/09/26 12:06:46;;;;;;;;;6.33;4.33;;;;;;;;5130855;27;10350;-82
2023/09/26 12:09:19;;;;;;;;;5.33;4.67;;;;;;;;5133824;27;8807;-83
2023/09/26 12:11:45;;;;;;;;;3.33;3.00;;;;;;;;5131924;27;8783;-77
2023/09/26 12:14:10;;;;;;;;;3.00;3.00;;;;;;;;5130310;27;8945;-77
2023/09/26 12:16:35;;;;;;;;;4.33;3.33;;;;;;;;5129606;27;8832;-80
2023/09/26 12:19:01;;;;;;;;;3.33;3.33;;;;;;;;5128446;27;8922;-77
2023/09/26 12:21:26;;;;;;;;;3.67;2.67;;;;;;;;5138811;27;8784;-80
2023/09/26 12:23:51;;;;;;;;;6.00;3.67;;;;;;;;5133313;27;8812;-79
2023/09/26 12:26:16;;;;;;;;;6.00;5.00;;;;;;;;5135246;27;8806;-76
2023/09/26 12:28:42;;;;;;;;;4.00;4.00;;;;;;;;5133928;27;9857;-77
2023/09/26 12:31:08;;;;;;;;;4.00;4.00;;;;;;;;5133505;27;8905;-77
2023/09/26 12:33:33;;;;;;;;;4.33;3.00;;;;;;;;5128514;27;8812;-76
2023/09/26 12:35:59;;;;;;;;;2.00;2.00;;;;;;;;5127339;27;8828;-77
2023/09/26 12:38:24;;;;;;;;;2.75;2.75;;;;;;;;5125441;27;8796;-77
2023/09/26 12:40:49;;;;;;;;;2.67;2.00;;;;;;;;5134572;27;8854;-76
2023/09/26 12:43:15;;;;;;;;;1.00;0.00;;;;;;;;5124395;27;8800;-77
2023/09/26 12:45:40;;;;;;;;;1.67;1.67;;;;;;;;5126675;27;8781;-77
2023/09/26 12:48:05;;;;;;;;;3.00;3.00;;;;;;;;5142543;27;8949;-76
2023/09/26 12:50:31;;;;;;;;;4.00;2.33;;;;;;;;5138726;27;8781;-77
2023/09/26 12:52:57;;;;;;;;;4.00;2.00;;;;;;;;5131832;27;8917;-77
2023/09/26 12:55:23;;;;;;;;;2.00;2.00;;;;;;;;5142572;27;8874;-77
2023/09/26 12:57:48;;;;;;;;;3.33;2.33;;;;;;;;5145024;27;8801;-77
2023/09/26 13:00:14;;;;;;;;;2.00;2.00;;;;;;;;5139030;27;8797;-77
2023/09/26 13:02:40;;;;;;;;;3.33;2.33;;;;;;;;5144284;27;8804;-77
2023/09/26 13:05:05;;;;;;;;;6.00;3.00;;;;;;;;5134597;27;8780;-78
2023/09/26 13:07:30;;;;;;;;;1.33;0.00;;;;;;;;5134408;27;9595;-77
2023/09/26 13:09:55;;;;;;;;;1.00;1.00;;;;;;;;5145480;27;8811;-77
2023/09/26 13:12:21;;;;;;;;;2.67;2.67;;;;;;;;5145605;27;8780;-77
2023/09/26 13:14:46;;;;;;;;;1.00;1.00;;;;;;;;5130581;27;8823;-78
2023/09/26 13:17:12;;;;;;;;;1.33;1.33;;;;;;;;5126372;27;8874;-78
2023/09/26 13:19:40;;;;;;;;;2.00;1.33;;;;;;;;5115259;27;8808;-79
2023/09/26 13:22:07;;;;;;;;;2.25;2.25;;;;;;;;5132926;27;8777;-79
2023/09/26 13:24:32;;;;;;;;;4.00;0.75;;;;;;;;5125331;27;10155;-77
2023/09/26 13:26:58;;;;;;;;;1.00;1.00;;;;;;;;5124860;27;8825;-77
2023/09/26 13:29:24;;;;;;;;;4.33;2.33;;;;;;;;5128428;27;8800;-77
2023/09/26 13:31:49;;;;;;;;;5.00;2.00;;;;;;;;5121502;27;8815;-81
2023/09/26 13:34:14;;;;;;;;;1.67;1.67;;;;;;;;5124245;27;10039;-80
2023/09/26 13:36:39;;;;;;;;;4.00;2.00;;;;;;;;5123583;28;8795;-80
2023/09/26 13:39:06;;;;;;;;;2.33;2.33;;;;;;;;5124295;27;8886;-80
2023/09/26 13:41:31;;;;;;;;;5.25;1.50;;;;;;;;5124936;27;8771;-80
2023/09/26 13:43:56;;;;;;;;;2.00;2.00;;;;;;;;5124044;27;8796;-80
2023/09/26 13:46:22;;;;;;;;;2.00;2.00;;;;;;;;5132943;27;8812;-80
2023/09/26 13:48:47;;;;;;;;;1.00;1.00;;;;;;;;5126110;27;9020;-80
2023/09/26 13:51:13;;;;;;;;;1.67;1.00;;;;;;;;5112602;27;9995;-80
2023/09/26 13:53:39;;;;;;;;;3.00;3.00;;;;;;;;5128062;27;8777;-81
2023/09/26 13:56:04;;;;;;;;;4.00;2.67;;;;;;;;5138575;27;8910;-80
2023/09/26 13:58:30;;;;;;;;;4.33;3.00;;;;;;;;5137748;27;8804;-80
2023/09/26 14:00:56;;;;;;;;;2.00;1.50;;;;;;;;5124320;27;8821;-80
2023/09/26 14:03:22;;;;;;;;;1.33;1.33;;;;;;;;5124613;27;8799;-80
2023/09/26 14:05:47;;;;;;;;;3.33;2.67;;;;;;;;5126950;27;8897;-80
2023/09/26 14:08:12;;;;;;;;;2.33;0.33;;;;;;;;5124999;27;8827;-80
2023/09/26 14:10:37;;;;;;;;;2.00;2.00;;;;;;;;5131420;27;8925;-80
2023/09/26 14:13:03;;;;;;;;;2.00;2.00;;;;;;;;5123287;27;10223;-80
2023/09/26 14:15:28;;;;;;;;;3.00;2.00;;;;;;;;5136193;27;8769;-81
2023/09/26 14:17:54;;;;;;;;;3.33;3.33;;;;;;;;5135303;27;8888;-80
2023/09/26 14:20:19;;;;;;;;;2.33;2.33;;;;;;;;5130469;27;8913;-80
2023/09/26 14:22:44;;;;;;;;;1.00;1.00;;;;;;;;5131264;27;8790;-80
2023/09/26 14:25:10;;;;;;;;;3.00;2.00;;;;;;;;5132001;27;8811;-80
2023/09/26 14:27:37;;;;;;;;;0.67;0.67;;;;;;;;5125481;27;8839;-80
2023/09/26 14:30:12;;;;;;;;;2.00;2.00;;;;;;;;5128572;27;8761;-80
2023/09/26 14:32:38;;;;;;;;;4.00;2.00;;;;;;;;5122965;27;8775;-80
2023/09/26 14:35:04;;;;;;;;;3.00;3.00;;;;;;;;5127626;27;8819;-80
2023/09/26 14:37:30;;;;;;;;;3.75;1.00;;;;;;;;5132590;27;8741;-80
2023/09/26 14:39:55;;;;;;;;;2.33;2.00;;;;;;;;5132327;27;9240;-82
2023/09/26 14:42:20;;;;;;;;;0.67;0.67;;;;;;;;5123964;27;8870;-81
2023/09/26 14:44:46;;;;;;;;;5.33;3.00;;;;;;;;5123579;27;8893;-80